Time,TemperatureF,DewpointF,PressureIn,WindDirection,WindDirectionDegrees,WindSpeedMPH,WindSpeedGustMPH,Humidity,HourlyPrecipIn,Conditions,Clouds,dailyrainin,SoftwareType,DateUTC
2013-02-21 00:00:00,23.0,10.8,30.34,North,355,0.0,8.0,59,0.00,,,0.00,VWS V14.01,2013-02-21 05:00:00,
2013-02-21 00:02:00,22.9,10.7,30.34,North,355,0.0,8.0,59,0.00,,,0.00,VWS V14.01,2013-02-21 05:02:00,
2013-02-21 00:07:00,22.9,11.1,30.34,NNE,19,0.0,8.0,60,0.00,,,0.00,VWS V14.01,2013-02-21 05:07:00,
2013-02-21 00:10:00,22.7,10.9,30.34,NNE,19,0.0,8.0,60,0.00,,,0.00,VWS V14.01,2013-02-21 05:10:00,
2013-02-21 00:13:00,22.7,10.9,30.34,North,9,0.0,8.0,60,0.00,,,0.00,VWS V14.01,2013-02-21 05:13:00,
2013-02-21 00:18:00,22.7,10.9,30.34,NNE,19,0.0,8.0,60,0.00,,,0.00,VWS V14.01,2013-02-21 05:18:00,
2013-02-21 00:20:00,22.7,11.3,30.34,NNE,18,0.0,8.0,61,0.00,,,0.00,VWS V14.01,2013-02-21 05:20:00,
2013-02-21 00:23:00,22.5,10.7,30.34,NNE,18,0.0,8.0,60,0.00,,,0.00,VWS V14.01,2013-02-21 05:23:00,
2013-02-21 00:28:00,22.5,11.1,30.34,NNE,17,1.0,8.0,61,0.00,,,0.00,VWS V14.01,2013-02-21 05:28:00,
2013-02-21 00:30:00,22.4,11.0,30.35,NNE,26,3.0,8.0,61,0.00,,,0.00,VWS V14.01,2013-02-21 05:30:00,
2013-02-21 00:33:00,22.4,11.0,30.35,NNW,338,0.0,8.0,61,0.00,,,0.00,VWS V14.01,2013-02-21 05:33:00,
2013-02-21 00:38:00,22.2,10.8,30.35,NNW,341,0.0,8.0,61,0.00,,,0.00,VWS V14.01,2013-02-21 05:38:00,
2013-02-21 00:40:00,22.2,10.8,30.35,NNW,341,0.0,8.0,61,0.00,,,0.00,VWS V14.01,2013-02-21 05:40:00,
2013-02-21 00:43:00,22.2,11.2,30.35,NNW,342,0.0,8.0,62,0.00,,,0.00,VWS V14.01,2013-02-21 05:43:00,
2013-02-21 00:48:00,22.1,11.1,30.35,NNW,348,2.0,8.0,62,0.00,,,0.00,VWS V14.01,2013-02-21 05:48:00,
2013-02-21 00:50:00,22.1,11.1,30.35,North,349,1.0,8.0,62,0.00,,,0.00,VWS V14.01,2013-02-21 05:50:00,
2013-02-21 00:53:00,22.1,11.1,30.35,NNW,348,1.0,8.0,62,0.00,,,0.00,VWS V14.01,2013-02-21 05:53:00,
2013-02-21 00:58:00,21.9,10.9,30.35,North,355,0.0,8.0,62,0.00,,,0.00,VWS V14.01,2013-02-21 05:58:00,
2013-02-21 01:00:00,21.9,10.9,30.35,North,355,0.0,8.0,62,0.00,,,0.00,VWS V14.01,2013-02-21 06:00:00,
2013-02-21 01:03:00,21.9,10.9,30.35,North,5,0.0,8.0,62,0.00,,,0.00,VWS V14.01,2013-02-21 06:03:00,
2013-02-21 01:08:00,21.8,10.8,30.35,NNE,25,0.0,8.0,62,0.00,,,0.00,VWS V14.01,2013-02-21 06:08:00,
2013-02-21 01:10:00,21.8,10.8,30.35,NNE,26,0.0,8.0,62,0.00,,,0.00,VWS V14.01,2013-02-21 06:10:00,
2013-02-21 01:13:00,21.8,11.2,30.35,NNE,25,2.0,8.0,63,0.00,,,0.00,VWS V14.01,2013-02-21 06:13:00,
2013-02-21 01:18:00,21.6,11.0,30.35,NNE,30,0.0,8.0,63,0.00,,,0.00,VWS V14.01,2013-02-21 06:18:00,
2013-02-21 01:20:00,21.6,11.0,30.35,NNE,30,0.0,8.0,63,0.00,,,0.00,VWS V14.01,2013-02-21 06:20:00,
2013-02-21 01:23:00,21.6,11.0,30.35,NNE,30,0.0,8.0,63,0.00,,,0.00,VWS V14.01,2013-02-21 06:23:00,
2013-02-21 01:28:00,21.4,10.8,30.35,NNE,30,0.0,8.0,63,0.00,,,0.00,VWS V14.01,2013-02-21 06:28:00,
2013-02-21 01:30:00,21.4,10.8,30.35,NNE,30,0.0,8.0,63,0.00,,,0.00,VWS V14.01,2013-02-21 06:30:00,
2013-02-21 01:33:00,21.4,11.1,30.35,NNE,30,2.0,8.0,64,0.00,,,0.00,VWS V14.01,2013-02-21 06:33:00,
2013-02-21 01:38:00,21.3,11.0,30.35,NNE,29,0.0,8.0,64,0.00,,,0.00,VWS V14.01,2013-02-21 06:38:00,
2013-02-21 01:40:00,21.3,11.0,30.35,NNE,29,0.0,8.0,64,0.00,,,0.00,VWS V14.01,2013-02-21 06:40:00,
2013-02-21 01:43:00,21.1,10.8,30.35,NNE,29,0.0,8.0,64,0.00,,,0.00,VWS V14.01,2013-02-21 06:43:00,
2013-02-21 01:48:00,21.1,10.8,30.34,NNE,29,0.0,8.0,64,0.00,,,0.00,VWS V14.01,2013-02-21 06:48:00,
2013-02-21 01:50:00,21.1,10.8,30.34,NNE,29,1.0,8.0,64,0.00,,,0.00,VWS V14.01,2013-02-21 06:50:00,
2013-02-21 01:53:00,21.0,11.1,30.34,NNE,29,0.0,8.0,65,0.00,,,0.00,VWS V14.01,2013-02-21 06:53:00,
2013-02-21 01:58:00,21.0,11.1,30.34,NNE,29,0.0,8.0,65,0.00,,,0.00,VWS V14.01,2013-02-21 06:58:00,
2013-02-21 02:00:00,20.8,10.9,30.34,NNE,29,0.0,8.0,65,0.00,,,0.00,VWS V14.01,2013-02-21 07:00:00,
2013-02-21 02:03:00,20.8,10.9,30.34,NNE,29,0.0,8.0,65,0.00,,,0.00,VWS V14.01,2013-02-21 07:03:00,
2013-02-21 02:08:00,20.8,10.9,30.34,NNE,29,0.0,8.0,65,0.00,,,0.00,VWS V14.01,2013-02-21 07:08:00,
2013-02-21 02:10:00,20.8,10.9,30.34,NNE,29,0.0,8.0,65,0.00,,,0.00,VWS V14.01,2013-02-21 07:10:00,
2013-02-21 02:18:00,20.6,11.1,30.35,NNE,29,0.0,8.0,66,0.00,,,0.00,VWS V14.01,2013-02-21 07:18:00,
2013-02-21 02:23:00,20.5,11.3,30.35,NNE,29,0.0,8.0,67,0.00,,,0.00,VWS V14.01,2013-02-21 07:23:00,
2013-02-21 02:30:00,20.3,11.1,30.34,NNE,29,0.0,8.0,67,0.00,,,0.00,VWS V14.01,2013-02-21 07:30:00,
2013-02-21 02:34:00,20.2,11.4,30.34,NNE,29,0.0,8.0,68,0.00,,,0.00,VWS V14.01,2013-02-21 07:34:00,
2013-02-21 02:39:00,20.3,11.4,30.34,NNE,29,0.0,8.0,68,0.00,,,0.00,VWS V14.01,2013-02-21 07:39:00,
2013-02-21 02:40:00,20.3,11.4,30.34,NNE,29,0.0,8.0,68,0.00,,,0.00,VWS V14.01,2013-02-21 07:40:00,
2013-02-21 02:44:00,20.5,11.3,30.34,NNE,32,0.0,8.0,67,0.00,,,0.00,VWS V14.01,2013-02-21 07:44:00,
2013-02-21 02:49:00,20.5,11.3,30.33,ENE,70,1.0,8.0,67,0.00,,,0.00,VWS V14.01,2013-02-21 07:49:00,
2013-02-21 02:50:00,20.5,11.3,30.33,ENE,70,0.0,8.0,67,0.00,,,0.00,VWS V14.01,2013-02-21 07:50:00,
2013-02-21 02:54:00,20.6,11.4,30.33,ENE,70,0.0,8.0,67,0.00,,,0.00,VWS V14.01,2013-02-21 07:54:00,
2013-02-21 02:59:00,20.5,11.6,30.33,ENE,70,0.0,8.0,68,0.00,,,0.00,VWS V14.01,2013-02-21 07:59:00,
2013-02-21 03:00:00,20.5,11.6,30.33,ENE,70,0.0,8.0,68,0.00,,,0.00,VWS V14.01,2013-02-21 08:00:00,
2013-02-21 03:10:00,20.3,11.4,30.33,ENE,67,0.0,8.0,68,0.00,,,0.00,VWS V14.01,2013-02-21 08:10:00,
2013-02-21 03:14:00,20.3,11.4,30.33,ENE,67,0.0,8.0,68,0.00,,,0.00,VWS V14.01,2013-02-21 08:14:00,
2013-02-21 03:19:00,20.6,11.1,30.34,NNE,29,0.0,8.0,66,0.00,,,0.00,VWS V14.01,2013-02-21 08:19:00,
2013-02-21 03:25:00,20.6,11.1,30.35,NNE,29,0.0,8.0,66,0.00,,,0.00,VWS V14.01,2013-02-21 08:25:00,
2013-02-21 03:30:00,20.3,11.4,30.33,ENE,67,0.0,8.0,68,0.00,,,0.00,VWS V14.01,2013-02-21 08:30:00,
2013-02-21 03:34:00,20.3,11.1,30.35,NNE,29,0.0,8.0,67,0.00,,,0.00,VWS V14.01,2013-02-21 08:34:00,
2013-02-21 03:39:00,20.2,11.4,30.33,ENE,67,0.0,8.0,68,0.00,,,0.00,VWS V14.01,2013-02-21 08:39:00,
2013-02-21 03:40:00,20.2,11.4,30.33,ENE,67,0.0,8.0,68,0.00,,,0.00,VWS V14.01,2013-02-21 08:40:00,
2013-02-21 04:09:00,20.5,11.6,30.33,ENE,70,0.0,8.0,68,0.00,,,0.00,VWS V14.01,2013-02-21 09:09:00,
2013-02-21 04:14:00,20.3,11.4,30.33,ENE,67,1.0,8.0,68,0.00,,,0.00,VWS V14.01,2013-02-21 09:14:00,
2013-02-21 04:25:00,20.3,11.4,30.33,ENE,67,0.0,8.0,68,0.00,,,0.00,VWS V14.01,2013-02-21 09:25:00,
2013-02-21 04:30:00,19.7,11.5,30.35,NNE,20,0.0,8.0,70,0.00,,,0.00,VWS V14.01,2013-02-21 09:30:00,
2013-02-21 04:34:00,20.3,11.4,30.33,ENE,67,0.0,8.0,68,0.00,,,0.00,VWS V14.01,2013-02-21 09:34:00,
2013-02-21 04:49:00,20.2,11.4,30.33,ENE,67,0.0,8.0,68,0.00,,,0.00,VWS V14.01,2013-02-21 09:49:00,
2013-02-21 04:54:00,20.2,11.4,30.33,ENE,67,1.0,8.0,68,0.00,,,0.00,VWS V14.01,2013-02-21 09:54:00,
2013-02-21 04:59:00,20.0,11.5,30.33,ENE,67,0.0,8.0,69,0.00,,,0.00,VWS V14.01,2013-02-21 09:59:00,
2013-02-21 05:04:00,20.0,11.5,30.33,ENE,67,0.0,8.0,69,0.00,,,0.00,VWS V14.01,2013-02-21 10:04:00,
2013-02-21 05:09:00,19.9,11.4,30.33,ENE,76,1.0,8.0,69,0.00,,,0.00,VWS V14.01,2013-02-21 10:09:00,
2013-02-21 05:14:00,19.9,11.4,30.33,ENE,76,3.0,8.0,69,0.00,,,0.00,VWS V14.01,2013-02-21 10:14:00,
2013-02-21 05:15:00,19.2,11.4,30.36,ENE,64,0.0,8.0,71,0.00,,,0.00,VWS V14.01,2013-02-21 10:15:00,
2013-02-21 05:20:00,19.2,11.7,30.36,NE,48,0.0,8.0,72,0.00,,,0.00,VWS V14.01,2013-02-21 10:20:00,
2013-02-21 05:24:00,19.9,11.4,30.35,ENE,76,0.0,8.0,69,0.00,,,0.00,VWS V14.01,2013-02-21 10:24:00,
2013-02-21 05:30:00,19.9,11.7,30.35,ENE,76,0.0,8.0,70,0.00,,,0.00,VWS V14.01,2013-02-21 10:30:00,
2013-02-21 05:35:00,19.7,11.5,30.35,NNE,20,0.0,8.0,70,0.00,,,0.00,VWS V14.01,2013-02-21 10:35:00,
2013-02-21 05:40:00,19.7,11.5,30.35,NE,56,0.0,8.0,70,0.00,,,0.00,VWS V14.01,2013-02-21 10:40:00,
2013-02-21 05:45:00,19.7,11.5,30.35,NE,56,0.0,8.0,70,0.00,,,0.00,VWS V14.01,2013-02-21 10:45:00,
2013-02-21 05:50:00,19.7,11.5,30.37,ENE,57,0.0,8.0,70,0.00,,,0.00,VWS V14.01,2013-02-21 10:50:00,
2013-02-21 05:55:00,19.7,11.5,30.37,ENE,57,0.0,8.0,70,0.00,,,0.00,VWS V14.01,2013-02-21 10:55:00,
2013-02-21 06:00:00,19.5,11.3,30.37,ENE,57,0.0,8.0,70,0.00,,,0.00,VWS V14.01,2013-02-21 11:00:00,
2013-02-21 06:05:00,19.5,11.6,30.36,ENE,57,1.0,8.0,71,0.00,,,0.00,VWS V14.01,2013-02-21 11:05:00,
2013-02-21 06:10:00,19.4,11.6,30.36,NE,56,0.0,8.0,71,0.00,,,0.00,VWS V14.01,2013-02-21 11:10:00,
2013-02-21 06:15:00,19.4,11.6,30.36,NE,56,0.0,8.0,71,0.00,,,0.00,VWS V14.01,2013-02-21 11:15:00,
2013-02-21 06:25:00,19.2,11.7,30.36,NE,49,0.0,8.0,72,0.00,,,0.00,VWS V14.01,2013-02-21 11:25:00,
2013-02-21 06:30:00,19.1,11.6,30.36,NE,42,3.0,8.0,72,0.00,,,0.00,VWS V14.01,2013-02-21 11:30:00,
2013-02-21 06:35:00,19.1,11.6,30.36,ENE,74,2.0,8.0,72,0.00,,,0.00,VWS V14.01,2013-02-21 11:35:00,
2013-02-21 06:40:00,19.1,11.6,30.36,NE,49,4.0,8.0,72,0.00,,,0.00,VWS V14.01,2013-02-21 11:40:00,
2013-02-21 06:45:00,19.1,11.9,30.36,ENE,64,3.0,8.0,73,0.00,,,0.00,VWS V14.01,2013-02-21 11:45:00,
2013-02-21 06:50:00,18.9,11.4,30.36,NE,56,1.0,8.0,72,0.00,,,0.00,VWS V14.01,2013-02-21 11:50:00,
2013-02-21 06:55:00,19.1,11.9,30.36,East,80,3.0,8.0,73,0.00,,,0.00,VWS V14.01,2013-02-21 11:55:00,
2013-02-21 07:00:00,19.1,11.9,30.36,ENE,73,4.0,8.0,73,0.00,,,0.00,VWS V14.01,2013-02-21 12:00:00,
2013-02-21 07:05:00,19.1,11.6,30.36,ENE,63,1.0,8.0,72,0.00,,,0.00,VWS V14.01,2013-02-21 12:05:00,
2013-02-21 07:10:00,19.1,11.6,30.36,ENE,69,2.0,8.0,72,0.00,,,0.00,VWS V14.01,2013-02-21 12:10:00,
2013-02-21 07:15:00,19.1,11.6,30.36,ENE,64,2.0,8.0,72,0.00,,,0.00,VWS V14.01,2013-02-21 12:15:00,
2013-02-21 07:20:00,18.9,11.4,30.38,ENE,64,2.0,8.0,72,0.00,,,0.00,VWS V14.01,2013-02-21 12:20:00,
2013-02-21 07:26:00,18.9,11.4,30.38,ENE,59,1.0,8.0,72,0.00,,,0.00,VWS V14.01,2013-02-21 12:26:00,
2013-02-21 07:31:00,18.9,11.4,30.38,East,92,2.0,8.0,72,0.00,,,0.00,VWS V14.01,2013-02-21 12:31:00,
2013-02-21 07:36:00,19.1,11.6,30.38,ENE,69,2.0,8.0,72,0.00,,,0.00,VWS V14.01,2013-02-21 12:36:00,
2013-02-21 07:41:00,19.1,11.6,30.38,ENE,67,2.0,8.0,72,0.00,,,0.00,VWS V14.01,2013-02-21 12:41:00,
2013-02-21 07:46:00,19.2,11.7,30.38,NE,46,0.0,8.0,72,0.00,,,0.00,VWS V14.01,2013-02-21 12:46:00,
2013-02-21 07:51:00,19.2,11.7,30.38,ENE,65,4.0,8.0,72,0.00,,,0.00,VWS V14.01,2013-02-21 12:51:00,
2013-02-21 07:56:00,19.4,11.9,30.38,ENE,57,1.0,8.0,72,0.00,,,0.00,VWS V14.01,2013-02-21 12:56:00,
2013-02-21 08:01:00,19.5,12.0,30.38,NE,46,2.0,8.0,72,0.00,,,0.00,VWS V14.01,2013-02-21 13:01:00,
2013-02-21 08:06:00,19.7,11.8,30.38,ENE,59,4.0,8.0,71,0.00,,,0.00,VWS V14.01,2013-02-21 13:06:00,
2013-02-21 08:11:00,19.9,12.0,30.38,ENE,57,4.0,8.0,71,0.00,,,0.00,VWS V14.01,2013-02-21 13:11:00,
2013-02-21 08:16:00,20.2,12.0,30.38,NE,53,2.0,8.0,70,0.00,,,0.00,VWS V14.01,2013-02-21 13:16:00,
2013-02-21 08:21:00,20.5,12.3,30.38,ENE,61,4.0,8.0,70,0.00,,,0.00,VWS V14.01,2013-02-21 13:21:00,
2013-02-21 08:26:00,20.8,12.2,30.38,East,80,5.0,8.0,69,0.00,,,0.00,VWS V14.01,2013-02-21 13:26:00,
2013-02-21 08:31:00,21.0,12.1,30.38,East,80,3.0,8.0,68,0.00,,,0.00,VWS V14.01,2013-02-21 13:31:00,
2013-02-21 08:36:00,21.1,12.2,30.38,East,82,2.0,8.0,68,0.00,,,0.00,VWS V14.01,2013-02-21 13:36:00,
2013-02-21 08:41:00,21.6,12.7,30.38,East,88,2.0,8.0,68,0.00,,,0.00,VWS V14.01,2013-02-21 13:41:00,
2013-02-21 08:46:00,22.1,12.8,30.38,East,84,7.0,8.0,67,0.00,,,0.00,VWS V14.01,2013-02-21 13:46:00,
2013-02-21 08:51:00,21.9,12.3,30.38,ESE,102,5.0,8.0,66,0.00,,,0.00,VWS V14.01,2013-02-21 13:51:00,
2013-02-21 08:56:00,22.2,12.9,30.38,NNE,26,6.0,8.0,67,0.00,,,0.00,VWS V14.01,2013-02-21 13:56:00,
2013-02-21 09:01:00,22.4,13.1,30.38,ENE,63,5.0,8.0,67,0.00,,,0.00,VWS V14.01,2013-02-21 14:01:00,
2013-02-21 09:06:00,22.5,12.9,30.38,ENE,71,2.0,8.0,66,0.00,,,0.00,VWS V14.01,2013-02-21 14:06:00,
2013-02-21 09:11:00,22.5,12.5,30.38,ENE,63,1.0,8.0,65,0.00,,,0.00,VWS V14.01,2013-02-21 14:11:00,
2013-02-21 09:16:00,23.0,12.6,30.38,ENE,68,4.0,8.0,64,0.00,,,0.00,VWS V14.01,2013-02-21 14:16:00,
2013-02-21 09:21:00,23.0,12.6,30.38,NE,51,4.0,8.0,64,0.00,,,0.00,VWS V14.01,2013-02-21 14:21:00,
2013-02-21 09:26:00,23.5,12.8,30.38,ENE,71,7.0,8.0,63,0.00,,,0.00,VWS V14.01,2013-02-21 14:26:00,
2013-02-21 09:31:00,23.5,12.4,30.38,ENE,70,7.0,8.0,62,0.00,,,0.00,VWS V14.01,2013-02-21 14:31:00,
2013-02-21 09:36:00,23.6,12.5,30.38,ENE,78,8.0,8.0,62,0.00,,,0.00,VWS V14.01,2013-02-21 14:36:00,
2013-02-21 09:41:00,24.2,13.1,30.38,East,92,5.0,8.0,62,0.00,,,0.00,VWS V14.01,2013-02-21 14:41:00,
2013-02-21 09:46:00,24.4,13.3,30.38,ESE,102,8.0,8.0,62,0.00,,,0.00,VWS V14.01,2013-02-21 14:46:00,
2013-02-21 09:51:00,24.5,13.0,30.37,East,92,7.0,8.0,61,0.00,,,0.00,VWS V14.01,2013-02-21 14:51:00,
2013-02-21 09:56:00,24.7,13.2,30.37,East,92,5.0,8.0,61,0.00,,,0.00,VWS V14.01,2013-02-21 14:56:00,
2013-02-21 10:02:00,25.3,13.8,30.37,East,84,5.0,8.0,61,0.00,,,0.00,VWS V14.01,2013-02-21 15:02:00,
2013-02-21 10:07:00,25.4,13.8,30.36,East,89,6.0,8.0,61,0.00,,,0.00,VWS V14.01,2013-02-21 15:07:00,
2013-02-21 10:12:00,25.1,13.2,30.36,NE,56,7.0,8.0,60,0.00,,,0.00,VWS V14.01,2013-02-21 15:12:00,
2013-02-21 10:17:00,25.4,13.8,30.36,ENE,61,9.0,9.0,61,0.00,,,0.00,VWS V14.01,2013-02-21 15:17:00,
2013-02-21 10:22:00,25.8,14.2,30.36,ESE,104,4.0,8.0,61,0.00,,,0.00,VWS V14.01,2013-02-21 15:22:00,
2013-02-21 10:27:00,26.1,14.5,30.36,NE,44,4.0,8.0,61,0.00,,,0.00,VWS V14.01,2013-02-21 15:27:00,
2013-02-21 10:32:00,26.6,14.2,30.36,ENE,75,10.0,10.0,59,0.00,,,0.00,VWS V14.01,2013-02-21 15:32:00,
2013-02-21 10:37:00,26.3,13.9,30.34,ENE,74,5.0,8.0,59,0.00,,,0.00,VWS V14.01,2013-02-21 15:37:00,
2013-02-21 10:42:00,26.1,13.8,30.34,ENE,74,9.0,9.0,59,0.00,,,0.00,VWS V14.01,2013-02-21 15:42:00,
2013-02-21 10:47:00,26.4,14.4,30.34,NE,56,5.0,8.0,60,0.00,,,0.00,VWS V14.01,2013-02-21 15:47:00,
2013-02-21 10:52:00,26.7,14.3,30.34,East,98,9.0,9.0,59,0.00,,,0.00,VWS V14.01,2013-02-21 15:52:00,
2013-02-21 10:57:00,26.9,14.5,30.34,East,96,7.0,8.0,59,0.00,,,0.00,VWS V14.01,2013-02-21 15:57:00,
2013-02-21 11:02:00,27.2,14.4,30.34,ENE,59,7.0,8.0,58,0.00,,,0.00,VWS V14.01,2013-02-21 16:02:00,
2013-02-21 11:07:00,27.9,14.6,30.33,East,89,3.0,8.0,57,0.00,,,0.00,VWS V14.01,2013-02-21 16:07:00,
2013-02-21 11:12:00,28.4,15.1,30.33,East,96,5.0,8.0,57,0.00,,,0.00,VWS V14.01,2013-02-21 16:12:00,
2013-02-21 11:17:00,28.2,14.9,30.33,East,92,3.0,8.0,57,0.00,,,0.00,VWS V14.01,2013-02-21 16:17:00,
2013-02-21 11:22:00,28.7,15.4,30.32,East,90,2.0,8.0,57,0.00,,,0.00,VWS V14.01,2013-02-21 16:22:00,
2013-02-21 11:27:00,29.0,14.9,30.32,ENE,74,8.0,8.0,55,0.00,,,0.00,VWS V14.01,2013-02-21 16:27:00,
2013-02-21 11:32:00,29.0,14.9,30.32,NE,42,7.0,8.0,55,0.00,,,0.00,VWS V14.01,2013-02-21 16:32:00,
2013-02-21 11:37:00,28.7,15.0,30.33,ENE,68,5.0,8.0,56,0.00,,,0.00,VWS V14.01,2013-02-21 16:37:00,
2013-02-21 11:42:00,29.4,15.7,30.33,ENE,57,9.0,9.0,56,0.00,,,0.00,VWS V14.01,2013-02-21 16:42:00,
2013-02-21 11:47:00,29.5,15.3,30.33,East,89,7.0,8.0,55,0.00,,,0.00,VWS V14.01,2013-02-21 16:47:00,
2013-02-21 11:52:00,29.7,15.1,30.33,ENE,57,4.0,8.0,54,0.00,,,0.00,VWS V14.01,2013-02-21 16:52:00,
2013-02-21 11:57:00,30.0,15.8,30.33,East,80,5.0,8.0,55,0.00,,,0.00,VWS V14.01,2013-02-21 16:57:00,
2013-02-21 12:02:00,30.3,15.7,30.33,NE,53,5.0,8.0,54,0.00,,,0.00,VWS V14.01,2013-02-21 17:02:00,
2013-02-21 12:07:00,30.9,16.2,30.33,ENE,61,8.0,8.0,54,0.00,,,0.00,VWS V14.01,2013-02-21 17:07:00,
2013-02-21 12:12:00,31.2,15.6,30.33,East,100,3.0,8.0,52,0.00,,,0.00,VWS V14.01,2013-02-21 17:12:00,
2013-02-21 12:17:00,31.2,15.6,30.33,East,81,2.0,8.0,52,0.00,,,0.00,VWS V14.01,2013-02-21 17:17:00,
2013-02-21 12:22:00,31.2,15.2,30.32,ENE,74,4.0,8.0,51,0.00,,,0.00,VWS V14.01,2013-02-21 17:22:00,
2013-02-21 12:27:00,31.3,15.7,30.32,East,85,3.0,8.0,52,0.00,,,0.00,VWS V14.01,2013-02-21 17:27:00,
2013-02-21 12:32:00,31.8,16.6,30.32,East,94,6.0,8.0,53,0.00,,,0.00,VWS V14.01,2013-02-21 17:32:00,
2013-02-21 12:37:00,31.9,15.4,30.32,ENE,64,1.0,8.0,50,0.00,,,0.00,VWS V14.01,2013-02-21 17:37:00,
2013-02-21 12:42:00,31.6,15.6,30.32,NE,53,2.0,8.0,51,0.00,,,0.00,VWS V14.01,2013-02-21 17:42:00,
2013-02-21 12:47:00,32.1,16.0,30.32,East,87,2.0,8.0,51,0.00,,,0.00,VWS V14.01,2013-02-21 17:47:00,
2013-02-21 12:53:00,32.1,16.0,30.30,ENE,63,2.0,8.0,51,0.00,,,0.00,VWS V14.01,2013-02-21 17:53:00,
2013-02-21 12:58:00,32.7,16.6,30.30,NE,44,5.0,8.0,51,0.00,,,0.00,VWS V14.01,2013-02-21 17:58:00,
2013-02-21 13:03:00,32.8,16.2,30.30,ENE,66,3.0,8.0,50,0.00,,,0.00,VWS V14.01,2013-02-21 18:03:00,
2013-02-21 13:08:00,33.1,16.0,30.29,NE,53,7.0,8.0,49,0.00,,,0.00,VWS V14.01,2013-02-21 18:08:00,
2013-02-21 13:13:00,33.1,16.5,30.29,NE,56,2.0,8.0,50,0.00,,,0.00,VWS V14.01,2013-02-21 18:13:00,
2013-02-21 13:18:00,33.1,16.5,30.29,ENE,60,5.0,8.0,50,0.00,,,0.00,VWS V14.01,2013-02-21 18:18:00,
2013-02-21 13:23:00,33.7,16.1,30.27,ENE,77,7.0,8.0,48,0.00,,,0.00,VWS V14.01,2013-02-21 18:23:00,
2013-02-21 13:28:00,33.5,16.4,30.27,ENE,63,7.0,8.0,49,0.00,,,0.00,VWS V14.01,2013-02-21 18:28:00,
2013-02-21 13:33:00,34.1,17.0,30.27,ESE,115,4.0,8.0,49,0.00,,,0.00,VWS V14.01,2013-02-21 18:33:00,
2013-02-21 13:38:00,33.8,16.7,30.27,East,84,3.0,8.0,49,0.00,,,0.00,VWS V14.01,2013-02-21 18:38:00,
2013-02-21 13:43:00,33.8,16.7,30.27,East,92,3.0,8.0,49,0.00,,,0.00,VWS V14.01,2013-02-21 18:43:00,
2013-02-21 13:48:00,34.3,17.1,30.27,ENE,70,3.0,8.0,49,0.00,,,0.00,VWS V14.01,2013-02-21 18:48:00,
2013-02-21 13:53:00,34.6,17.9,30.28,East,95,2.0,8.0,50,0.00,,,0.00,VWS V14.01,2013-02-21 18:53:00,
2013-02-21 13:58:00,35.0,18.2,30.28,NNE,15,6.0,8.0,50,0.00,,,0.00,VWS V14.01,2013-02-21 18:58:00,
2013-02-21 14:03:00,35.8,17.6,30.28,NE,45,7.0,8.0,47,0.00,,,0.00,VWS V14.01,2013-02-21 19:03:00,
2013-02-21 14:08:00,35.5,17.8,30.27,SE,130,3.0,8.0,48,0.00,,,0.00,VWS V14.01,2013-02-21 19:08:00,
2013-02-21 14:13:00,35.6,17.9,30.27,NE,42,4.0,8.0,48,0.00,,,0.00,VWS V14.01,2013-02-21 19:13:00,
2013-02-21 14:18:00,35.8,17.6,30.27,East,96,3.0,8.0,47,0.00,,,0.00,VWS V14.01,2013-02-21 19:18:00,
2013-02-21 14:23:00,35.6,17.9,30.27,East,86,5.0,8.0,48,0.00,,,0.00,VWS V14.01,2013-02-21 19:23:00,
2013-02-21 14:28:00,35.8,17.6,30.27,NE,51,4.0,8.0,47,0.00,,,0.00,VWS V14.01,2013-02-21 19:28:00,
2013-02-21 14:33:00,35.8,17.6,30.27,ENE,59,4.0,8.0,47,0.00,,,0.00,VWS V14.01,2013-02-21 19:33:00,
2013-02-21 14:38:00,35.6,17.9,30.24,NE,55,2.0,8.0,48,0.00,,,0.00,VWS V14.01,2013-02-21 19:38:00,
2013-02-21 14:43:00,35.8,17.6,30.24,NE,42,5.0,8.0,47,0.00,,,0.00,VWS V14.01,2013-02-21 19:43:00,
2013-02-21 14:48:00,35.6,17.4,30.24,ENE,61,9.0,9.0,47,0.00,,,0.00,VWS V14.01,2013-02-21 19:48:00,
2013-02-21 14:53:00,35.6,17.9,30.22,ENE,68,2.0,8.0,48,0.00,,,0.00,VWS V14.01,2013-02-21 19:53:00,
2013-02-21 14:58:00,35.6,17.4,30.22,ENE,73,8.0,8.0,47,0.00,,,0.00,VWS V14.01,2013-02-21 19:58:00,
2013-02-21 15:03:00,35.8,18.0,30.22,ENE,65,9.0,9.0,48,0.00,,,0.00,VWS V14.01,2013-02-21 20:03:00,
2013-02-21 15:08:00,35.8,17.6,30.22,ENE,74,4.0,8.0,47,0.00,,,0.00,VWS V14.01,2013-02-21 20:08:00,
2013-02-21 15:13:00,36.0,17.7,30.22,ENE,61,5.0,8.0,47,0.00,,,0.00,VWS V14.01,2013-02-21 20:13:00,
2013-02-21 15:18:00,35.9,18.1,30.22,East,93,7.0,8.0,48,0.00,,,0.00,VWS V14.01,2013-02-21 20:18:00,
2013-02-21 15:23:00,35.8,17.6,30.21,East,79,7.0,8.0,47,0.00,,,0.00,VWS V14.01,2013-02-21 20:23:00,
2013-02-21 15:28:00,35.6,17.9,30.21,ENE,64,10.0,10.0,48,0.00,,,0.00,VWS V14.01,2013-02-21 20:28:00,
2013-02-21 15:33:00,35.8,18.5,30.21,ESE,103,1.0,8.0,49,0.00,,,0.00,VWS V14.01,2013-02-21 20:33:00,
2013-02-21 15:38:00,36.2,17.4,30.20,ENE,68,7.0,8.0,46,0.00,,,0.00,VWS V14.01,2013-02-21 20:38:00,
2013-02-21 15:43:00,36.3,17.5,30.20,East,94,7.0,8.0,46,0.00,,,0.00,VWS V14.01,2013-02-21 20:43:00,
2013-02-21 15:48:00,36.5,18.2,30.20,NE,46,8.0,8.0,47,0.00,,,0.00,VWS V14.01,2013-02-21 20:48:00,
2013-02-21 15:54:00,36.2,17.4,30.18,ENE,78,7.0,8.0,46,0.00,,,0.00,VWS V14.01,2013-02-21 20:54:00,
2013-02-21 15:59:00,36.0,17.2,30.18,ENE,66,8.0,8.0,46,0.00,,,0.00,VWS V14.01,2013-02-21 20:59:00,
2013-02-21 16:04:00,36.0,17.2,30.18,ESE,113,3.0,8.0,46,0.00,,,0.00,VWS V14.01,2013-02-21 21:04:00,
2013-02-21 16:09:00,36.0,17.2,30.17,East,82,11.0,11.0,46,0.00,,,0.00,VWS V14.01,2013-02-21 21:09:00,
2013-02-21 16:14:00,36.0,17.7,30.17,ENE,67,4.0,8.0,47,0.00,,,0.00,VWS V14.01,2013-02-21 21:14:00,
2013-02-21 16:19:00,36.2,17.4,30.17,ENE,68,3.0,8.0,46,0.00,,,0.00,VWS V14.01,2013-02-21 21:19:00,
2013-02-21 16:24:00,36.2,17.4,30.17,NE,52,5.0,8.0,46,0.00,,,0.00,VWS V14.01,2013-02-21 21:24:00,
2013-02-21 16:29:00,36.3,17.5,30.17,NE,50,5.0,8.0,46,0.00,,,0.00,VWS V14.01,2013-02-21 21:29:00,
2013-02-21 16:34:00,36.3,18.0,30.17,ENE,57,5.0,8.0,47,0.00,,,0.00,VWS V14.01,2013-02-21 21:34:00,
2013-02-21 16:39:00,36.3,17.0,30.17,ENE,62,7.0,8.0,45,0.00,,,0.00,VWS V14.01,2013-02-21 21:39:00,
2013-02-21 16:44:00,36.3,17.5,30.17,East,90,6.0,8.0,46,0.00,,,0.00,VWS V14.01,2013-02-21 21:44:00,
2013-02-21 16:49:00,36.3,17.5,30.18,ENE,65,8.0,8.0,46,0.00,,,0.00,VWS V14.01,2013-02-21 21:49:00,
2013-02-21 16:54:00,36.3,17.5,30.18,East,81,6.0,8.0,46,0.00,,,0.00,VWS V14.01,2013-02-21 21:54:00,
2013-02-21 16:59:00,36.2,17.4,30.18,East,87,5.0,8.0,46,0.00,,,0.00,VWS V14.01,2013-02-21 21:59:00,
2013-02-21 17:04:00,36.3,17.0,30.18,ENE,70,8.0,8.0,45,0.00,,,0.00,VWS V14.01,2013-02-21 22:04:00,
2013-02-21 17:09:00,36.3,17.0,30.18,ENE,74,8.0,8.0,45,0.00,,,0.00,VWS V14.01,2013-02-21 22:09:00,
2013-02-21 17:14:00,36.3,17.5,30.18,ENE,78,2.0,8.0,46,0.00,,,0.00,VWS V14.01,2013-02-21 22:14:00,
2013-02-21 17:19:00,36.3,17.5,30.17,ENE,71,4.0,8.0,46,0.00,,,0.00,VWS V14.01,2013-02-21 22:19:00,
2013-02-21 17:24:00,36.3,18.0,30.17,ENE,57,1.0,8.0,47,0.00,,,0.00,VWS V14.01,2013-02-21 22:24:00,
2013-02-21 17:29:00,36.2,17.4,30.17,ENE,64,3.0,8.0,46,0.00,,,0.00,VWS V14.01,2013-02-21 22:29:00,
2013-02-21 17:34:00,36.2,17.9,30.15,East,98,10.0,10.0,47,0.00,,,0.00,VWS V14.01,2013-02-21 22:34:00,
2013-02-21 17:39:00,36.2,17.4,30.15,ENE,64,5.0,8.0,46,0.00,,,0.00,VWS V14.01,2013-02-21 22:39:00,
2013-02-21 17:44:00,36.0,17.2,30.15,East,86,8.0,8.0,46,0.00,,,0.00,VWS V14.01,2013-02-21 22:44:00,
2013-02-21 17:49:00,36.2,17.4,30.16,ENE,78,8.0,8.0,46,0.00,,,0.00,VWS V14.01,2013-02-21 22:49:00,
2013-02-21 17:54:00,36.0,17.2,30.16,ENE,75,5.0,8.0,46,0.00,,,0.00,VWS V14.01,2013-02-21 22:54:00,
2013-02-21 17:59:00,36.2,17.4,30.16,ENE,72,5.0,8.0,46,0.00,,,0.00,VWS V14.01,2013-02-21 22:59:00,
2013-02-21 18:04:00,36.2,17.4,30.17,ENE,69,5.0,8.0,46,0.00,,,0.00,VWS V14.01,2013-02-21 23:04:00,
2013-02-21 18:10:00,36.2,17.9,30.17,East,92,8.0,8.0,47,0.00,,,0.00,VWS V14.01,2013-02-21 23:10:00,
2013-02-21 18:15:00,36.0,17.7,30.17,ENE,74,4.0,8.0,47,0.00,,,0.00,VWS V14.01,2013-02-21 23:15:00,
2013-02-21 18:20:00,36.0,17.7,30.17,ENE,59,4.0,8.0,47,0.00,,,0.00,VWS V14.01,2013-02-21 23:20:00,
2013-02-21 18:25:00,36.2,17.9,30.17,NE,56,0.0,8.0,47,0.00,,,0.00,VWS V14.01,2013-02-21 23:25:00,
2013-02-21 18:30:00,36.2,17.9,30.17,ENE,77,8.0,8.0,47,0.00,,,0.00,VWS V14.01,2013-02-21 23:30:00,
2013-02-21 18:35:00,36.0,18.2,30.17,NE,36,2.0,8.0,48,0.00,,,0.00,VWS V14.01,2013-02-21 23:35:00,
2013-02-21 18:40:00,36.0,18.7,30.17,ENE,59,4.0,8.0,49,0.00,,,0.00,VWS V14.01,2013-02-21 23:40:00,
2013-02-21 18:45:00,35.9,18.6,30.17,ENE,63,4.0,8.0,49,0.00,,,0.00,VWS V14.01,2013-02-21 23:45:00,
2013-02-21 18:50:00,35.8,19.0,30.19,NE,46,7.0,8.0,50,0.00,,,0.00,VWS V14.01,2013-02-21 23:50:00,
2013-02-21 18:55:00,35.6,18.8,30.19,NNE,17,7.0,8.0,50,0.00,,,0.00,VWS V14.01,2013-02-21 23:55:00,
2013-02-21 19:00:00,35.5,19.2,30.19,ENE,71,4.0,8.0,51,0.00,,,0.00,VWS V14.01,2013-02-22 00:00:00,
2013-02-21 19:05:00,35.5,19.2,30.19,NE,52,1.0,8.0,51,0.00,,,0.00,VWS V14.01,2013-02-22 00:05:00,
2013-02-21 19:10:00,35.3,19.5,30.19,NE,36,6.0,8.0,52,0.00,,,0.00,VWS V14.01,2013-02-22 00:10:00,
2013-02-21 19:15:00,35.3,19.0,30.19,ENE,65,2.0,8.0,51,0.00,,,0.00,VWS V14.01,2013-02-22 00:15:00,
2013-02-21 19:20:00,35.3,19.0,30.20,ENE,68,2.0,8.0,51,0.00,,,0.00,VWS V14.01,2013-02-22 00:20:00,
2013-02-21 19:25:00,35.3,19.0,30.20,ENE,59,3.0,8.0,51,0.00,,,0.00,VWS V14.01,2013-02-22 00:25:00,
2013-02-21 19:30:00,35.3,19.5,30.20,ENE,65,1.0,8.0,52,0.00,,,0.00,VWS V14.01,2013-02-22 00:30:00,
2013-02-21 19:35:00,35.2,19.8,30.20,ENE,70,2.0,8.0,53,0.00,,,0.00,VWS V14.01,2013-02-22 00:35:00,
2013-02-21 19:40:00,35.0,20.5,30.20,NE,53,0.0,8.0,55,0.00,,,0.00,VWS V14.01,2013-02-22 00:40:00,
2013-02-21 19:45:00,34.7,20.6,30.20,NE,45,3.0,8.0,56,0.00,,,0.00,VWS V14.01,2013-02-22 00:45:00,
2013-02-21 19:50:00,34.7,20.2,30.23,ENE,68,4.0,8.0,55,0.00,,,0.00,VWS V14.01,2013-02-22 00:50:00,
2013-02-21 19:55:00,34.6,20.5,30.23,ENE,61,0.0,8.0,56,0.00,,,0.00,VWS V14.01,2013-02-22 00:55:00,
2013-02-21 20:00:00,34.4,20.3,30.23,ENE,67,7.0,8.0,56,0.00,,,0.00,VWS V14.01,2013-02-22 01:00:00,
2013-02-21 20:05:00,34.3,20.2,30.22,NE,41,4.0,8.0,56,0.00,,,0.00,VWS V14.01,2013-02-22 01:05:00,
2013-02-21 20:10:00,34.1,20.5,30.22,NE,52,5.0,8.0,57,0.00,,,0.00,VWS V14.01,2013-02-22 01:10:00,
2013-02-21 20:15:00,34.1,20.5,30.22,ENE,61,1.0,8.0,57,0.00,,,0.00,VWS V14.01,2013-02-22 01:15:00,
2013-02-21 20:20:00,34.0,20.0,30.20,NE,54,4.0,8.0,56,0.00,,,0.00,VWS V14.01,2013-02-22 01:20:00,
2013-02-21 20:25:00,33.8,20.2,30.20,NE,54,6.0,8.0,57,0.00,,,0.00,VWS V14.01,2013-02-22 01:25:00,
2013-02-21 20:30:00,33.7,20.5,30.20,ENE,59,8.0,8.0,58,0.00,,,0.00,VWS V14.01,2013-02-22 01:30:00,
2013-02-21 20:35:00,33.5,20.3,30.18,ENE,61,8.0,8.0,58,0.00,,,0.00,VWS V14.01,2013-02-22 01:35:00,
2013-02-21 20:40:00,33.4,20.2,30.18,ENE,66,2.0,8.0,58,0.00,,,0.00,VWS V14.01,2013-02-22 01:40:00,
2013-02-21 20:46:00,33.4,19.8,30.18,ENE,69,5.0,8.0,57,0.00,,,0.00,VWS V14.01,2013-02-22 01:46:00,
2013-02-21 20:51:00,33.2,19.6,30.19,ENE,65,3.0,8.0,57,0.00,,,0.00,VWS V14.01,2013-02-22 01:51:00,
2013-02-21 20:56:00,33.2,20.0,30.19,East,90,3.0,8.0,58,0.00,,,0.00,VWS V14.01,2013-02-22 01:56:00,
2013-02-21 21:01:00,33.1,19.9,30.19,East,82,5.0,8.0,58,0.00,,,0.00,VWS V14.01,2013-02-22 02:01:00,
2013-02-21 21:06:00,32.9,20.2,30.16,East,94,9.0,9.0,59,0.00,,,0.00,VWS V14.01,2013-02-22 02:06:00,
2013-02-21 21:11:00,32.8,20.5,30.16,ENE,76,5.0,8.0,60,0.00,,,0.00,VWS V14.01,2013-02-22 02:11:00,
2013-02-21 21:16:00,32.7,21.1,30.16,ENE,76,4.0,8.0,62,0.00,,,0.00,VWS V14.01,2013-02-22 02:16:00,
2013-02-21 21:21:00,32.4,22.3,30.18,ENE,76,4.0,8.0,66,0.00,,,0.00,VWS V14.01,2013-02-22 02:21:00,
2013-02-21 21:26:00,32.2,22.8,30.18,East,84,6.0,8.0,68,0.00,,,0.00,VWS V14.01,2013-02-22 02:26:00,
2013-02-21 21:31:00,31.9,22.5,30.18,ENE,57,7.0,8.0,68,0.00,,,0.00,VWS V14.01,2013-02-22 02:31:00,
2013-02-21 21:36:00,31.8,23.5,30.15,NNE,29,7.0,8.0,71,0.01,,,0.01,VWS V14.01,2013-02-22 02:36:00,
2013-02-21 21:41:00,31.6,24.3,30.15,East,92,9.0,9.0,74,0.01,,,0.01,VWS V14.01,2013-02-22 02:41:00,
2013-02-21 21:46:00,31.3,24.0,30.15,ENE,65,8.0,8.0,74,0.02,,,0.02,VWS V14.01,2013-02-22 02:46:00,
2013-02-21 21:51:00,31.2,24.2,30.16,East,86,9.0,9.0,75,0.03,,,0.03,VWS V14.01,2013-02-22 02:51:00,
2013-02-21 21:56:00,31.0,24.6,30.16,ENE,73,8.0,8.0,77,0.04,,,0.04,VWS V14.01,2013-02-22 02:56:00,
2013-02-21 22:01:00,31.0,25.0,30.16,ENE,69,7.0,8.0,78,0.05,,,0.05,VWS V14.01,2013-02-22 03:01:00,
2013-02-21 22:06:00,30.9,24.9,30.13,East,82,9.0,9.0,78,0.05,,,0.05,VWS V14.01,2013-02-22 03:06:00,
2013-02-21 22:11:00,30.9,25.2,30.13,East,81,7.0,8.0,79,0.06,,,0.06,VWS V14.01,2013-02-22 03:11:00,
2013-02-21 22:16:00,30.9,25.5,30.13,ENE,60,4.0,8.0,80,0.07,,,0.07,VWS V14.01,2013-02-22 03:16:00,
2013-02-21 22:21:00,30.9,25.5,30.15,ENE,60,0.0,8.0,80,0.08,,,0.08,VWS V14.01,2013-02-22 03:21:00,
2013-02-21 22:26:00,30.9,25.5,30.15,ENE,60,0.0,8.0,80,0.08,,,0.08,VWS V14.01,2013-02-22 03:26:00,
2013-02-21 22:31:00,30.7,25.3,30.15,ENE,60,0.0,8.0,80,0.08,,,0.08,VWS V14.01,2013-02-22 03:31:00,
2013-02-21 22:36:00,30.9,25.5,30.13,ENE,60,0.0,8.0,80,0.09,,,0.09,VWS V14.01,2013-02-22 03:36:00,
2013-02-21 22:41:00,30.7,25.3,30.13,ENE,60,0.0,8.0,80,0.09,,,0.09,VWS V14.01,2013-02-22 03:41:00,
2013-02-21 22:46:00,30.7,25.3,30.13,ENE,60,0.0,8.0,80,0.08,,,0.10,VWS V14.01,2013-02-22 03:46:00,
2013-02-21 22:51:00,30.7,25.6,30.10,ENE,60,0.0,8.0,81,0.09,,,0.11,VWS V14.01,2013-02-22 03:51:00,
2013-02-21 22:56:00,30.7,25.9,30.10,ENE,60,0.0,8.0,82,0.08,,,0.11,VWS V14.01,2013-02-22 03:56:00,
2013-02-21 23:00:00,31.0,27.3,30.08,ENE,60,0.0,8.0,86,0.05,,,0.16,VWS V14.01,2013-02-22 04:00:00,
2013-02-21 23:01:00,30.7,25.6,30.10,ENE,60,0.0,8.0,81,0.09,,,0.12,VWS V14.01,2013-02-22 04:01:00,
2013-02-21 23:06:00,30.6,25.8,30.09,ENE,60,0.0,8.0,82,0.07,,,0.12,VWS V14.01,2013-02-22 04:06:00,
2013-02-21 23:10:00,31.3,27.6,30.08,ENE,60,0.0,8.0,86,0.04,,,0.00,VWS V14.01,2013-02-22 04:10:00,
2013-02-21 23:11:00,30.6,25.8,30.09,ENE,60,0.0,8.0,82,0.07,,,0.12,VWS V14.01,2013-02-22 04:11:00,
2013-02-21 23:12:00,31.3,27.6,30.08,ENE,60,0.0,8.0,86,0.04,,,0.00,VWS V14.01,2013-02-22 04:12:00,
2013-02-21 23:16:00,30.6,25.8,30.09,ENE,60,0.0,8.0,82,0.05,,,0.12,VWS V14.01,2013-02-22 04:16:00,
2013-02-21 23:17:00,31.3,27.6,30.07,ENE,60,0.0,8.0,86,0.05,,,0.01,VWS V14.01,2013-02-22 04:17:00,
2013-02-21 23:20:00,31.5,27.8,30.07,ENE,60,0.0,8.0,86,0.05,,,0.01,VWS V14.01,2013-02-22 04:20:00,
2013-02-21 23:21:00,30.7,25.9,30.13,ENE,60,0.0,8.0,82,0.05,,,0.12,VWS V14.01,2013-02-22 04:21:00,
2013-02-21 23:22:00,31.5,28.1,30.07,ENE,60,0.0,8.0,87,0.06,,,0.02,VWS V14.01,2013-02-22 04:22:00,
2013-02-21 23:26:00,30.7,26.2,30.13,ENE,60,0.0,8.0,83,0.05,,,0.13,VWS V14.01,2013-02-22 04:26:00,
2013-02-21 23:27:00,31.5,28.1,30.07,ENE,60,0.0,8.0,87,0.06,,,0.02,VWS V14.01,2013-02-22 04:27:00,
2013-02-21 23:30:00,31.5,28.1,30.07,ENE,60,0.0,8.0,87,0.06,,,0.02,VWS V14.01,2013-02-22 04:30:00,
2013-02-21 23:31:00,30.9,26.6,30.13,ENE,60,0.0,8.0,84,0.05,,,0.13,VWS V14.01,2013-02-22 04:31:00,
2013-02-21 23:32:00,31.5,28.1,30.07,ENE,60,0.0,8.0,87,0.04,,,0.02,VWS V14.01,2013-02-22 04:32:00,
2013-02-21 23:36:00,30.9,26.6,30.09,ENE,60,0.0,8.0,84,0.05,,,0.14,VWS V14.01,2013-02-22 04:36:00,
2013-02-21 23:37:00,31.6,28.2,30.07,ENE,60,0.0,8.0,87,0.05,,,0.03,VWS V14.01,2013-02-22 04:37:00,
2013-02-21 23:40:00,31.6,28.2,30.07,ENE,60,0.0,8.0,87,0.05,,,0.03,VWS V14.01,2013-02-22 04:40:00,
2013-02-21 23:41:00,30.9,26.9,30.09,ENE,60,0.0,8.0,85,0.05,,,0.14,VWS V14.01,2013-02-22 04:41:00,
2013-02-21 23:42:00,31.6,28.2,30.07,ENE,60,0.0,8.0,87,0.04,,,0.03,VWS V14.01,2013-02-22 04:42:00,
2013-02-21 23:47:00,30.9,26.9,30.09,ENE,60,0.0,8.0,85,0.06,,,0.15,VWS V14.01,2013-02-22 04:47:00,
2013-02-21 23:50:00,31.6,28.2,30.06,ENE,60,0.0,8.0,87,0.05,,,0.04,VWS V14.01,2013-02-22 04:50:00,
2013-02-21 23:52:00,31.0,27.0,30.08,ENE,60,0.0,8.0,85,0.06,,,0.15,VWS V14.01,2013-02-22 04:52:00,
2013-02-21 23:57:00,31.0,27.3,30.08,ENE,60,0.0,8.0,86,0.04,,,0.15,VWS V14.01,2013-02-22 04:57:00,